DKH1982 ZSPD-ZYCC
Flight info
| Callsign | DKH1982 |
|---|---|
| Flight time | N/A |
| Altitude | 32100 |
| Route | ODU82D ODULO B221 XDX DCT URBAD W172 IGDEG W173 NIXEP W8 DOBGA W202 UDETI A588 LEMOT LEM93A |
| Aircraft | A320/M-SDE3FGHIRWY/LB1 |
Departure
| Time | N/A |
|---|---|
| Airport | Shanghai Pudong International Airport (ZSPD) |
Arrival
| Time | 2026-05-05 15:31 |
|---|---|
| Airport | Changchun Longjia International Airport (ZYCC) |
| Time | Latitude | Longitude | Altitude | Speed | Heading |
|---|---|---|---|---|---|
| 2026-05-05 14:57 | 40.92772 | 123.81849 | 31639 ft | 457 kts | 24° |
| 2026-05-05 14:57 | 40.95580 | 123.83835 | 31388 ft | 459 kts | 24° |
| 2026-05-05 14:57 | 40.98400 | 123.85834 | 31143 ft | 460 kts | 24° |
| 2026-05-05 14:58 | 41.01224 | 123.87842 | 30888 ft | 462 kts | 25° |
| 2026-05-05 14:58 | 41.04060 | 123.89871 | 30644 ft | 464 kts | 25° |
| 2026-05-05 14:58 | 41.06904 | 123.91915 | 30407 ft | 466 kts | 25° |
| 2026-05-05 14:58 | 41.09759 | 123.93969 | 30166 ft | 469 kts | 25° |
| 2026-05-05 14:59 | 41.12630 | 123.96038 | 29893 ft | 469 kts | 25° |
| 2026-05-05 14:59 | 41.15491 | 123.98106 | 29593 ft | 468 kts | 24° |
| 2026-05-05 14:59 | 41.18348 | 124.00170 | 29336 ft | 468 kts | 24° |
| 2026-05-05 14:59 | 41.21215 | 124.02240 | 29064 ft | 469 kts | 25° |
| 2026-05-05 15:00 | 41.24085 | 124.04313 | 28787 ft | 471 kts | 25° |
| 2026-05-05 15:00 | 41.25994 | 124.05693 | 28607 ft | 472 kts | 25° |
| 2026-05-05 15:00 | 41.29859 | 124.08492 | 28238 ft | 474 kts | 25° |
| 2026-05-05 15:00 | 41.32717 | 124.10564 | 27975 ft | 475 kts | 25° |
| 2026-05-05 15:01 | 41.35619 | 124.12664 | 27709 ft | 476 kts | 25° |
| 2026-05-05 15:01 | 41.38527 | 124.14769 | 27442 ft | 477 kts | 25° |
| 2026-05-05 15:01 | 41.41441 | 124.16882 | 27179 ft | 478 kts | 25° |
| 2026-05-05 15:01 | 41.44358 | 124.19030 | 26923 ft | 479 kts | 26° |
| 2026-05-05 15:02 | 41.47267 | 124.21211 | 26744 ft | 480 kts | 26° |
| 2026-05-05 15:02 | 41.50169 | 124.23413 | 26794 ft | 481 kts | 26° |
| 2026-05-05 15:02 | 41.53072 | 124.25627 | 26787 ft | 481 kts | 26° |
| 2026-05-05 15:02 | 41.55979 | 124.27843 | 26784 ft | 481 kts | 26° |
| 2026-05-05 15:03 | 41.58892 | 124.30055 | 26778 ft | 482 kts | 26° |
| 2026-05-05 15:03 | 41.61814 | 124.32265 | 26780 ft | 482 kts | 26° |
| 2026-05-05 15:03 | 41.64736 | 124.34471 | 26768 ft | 483 kts | 25° |
| 2026-05-05 15:03 | 41.67657 | 124.36680 | 26766 ft | 483 kts | 25° |
| 2026-05-05 15:04 | 41.70582 | 124.38894 | 26765 ft | 483 kts | 26° |
| 2026-05-05 15:04 | 41.73509 | 124.41108 | 26756 ft | 483 kts | 25° |
| 2026-05-05 15:04 | 41.76432 | 124.43321 | 26771 ft | 482 kts | 26° |
| 2026-05-05 15:04 | 41.79346 | 124.45534 | 26757 ft | 481 kts | 26° |
| 2026-05-05 15:05 | 41.85152 | 124.49966 | 26759 ft | 480 kts | 26° |
| 2026-05-05 15:05 | 41.88056 | 124.52183 | 26754 ft | 480 kts | 26° |
| 2026-05-05 15:05 | 41.90922 | 124.54369 | 26737 ft | 480 kts | 26° |
| 2026-05-05 15:06 | 41.93824 | 124.56584 | 26735 ft | 480 kts | 26° |
| 2026-05-05 15:06 | 41.96725 | 124.58803 | 26739 ft | 480 kts | 26° |
| 2026-05-05 15:06 | 41.99633 | 124.61001 | 26735 ft | 480 kts | 25° |
| 2026-05-05 15:06 | 42.02580 | 124.63103 | 26746 ft | 479 kts | 24° |
| 2026-05-05 15:07 | 42.05552 | 124.65124 | 26728 ft | 478 kts | 22° |
| 2026-05-05 15:07 | 42.08531 | 124.67100 | 26730 ft | 478 kts | 22° |
| 2026-05-05 15:07 | 42.11515 | 124.69074 | 26731 ft | 478 kts | 22° |
| 2026-05-05 15:07 | 42.14491 | 124.71065 | 26713 ft | 478 kts | 23° |
| 2026-05-05 15:08 | 42.17461 | 124.73085 | 26713 ft | 478 kts | 23° |
| 2026-05-05 15:08 | 42.20423 | 124.75122 | 26716 ft | 478 kts | 23° |
| 2026-05-05 15:08 | 42.23381 | 124.77172 | 26709 ft | 478 kts | 23° |
| 2026-05-05 15:08 | 42.26334 | 124.79224 | 26708 ft | 478 kts | 23° |
| 2026-05-05 15:09 | 42.29286 | 124.81274 | 26710 ft | 477 kts | 23° |
| 2026-05-05 15:09 | 42.32244 | 124.83327 | 26710 ft | 477 kts | 23° |
| 2026-05-05 15:09 | 42.35198 | 124.85371 | 26701 ft | 477 kts | 23° |
| 2026-05-05 15:09 | 42.38158 | 124.87415 | 26710 ft | 477 kts | 23° |
| 2026-05-05 15:10 | 42.41121 | 124.89461 | 26684 ft | 479 kts | 23° |
| 2026-05-05 15:10 | 42.44091 | 124.91515 | 26688 ft | 480 kts | 23° |
| 2026-05-05 15:10 | 42.47066 | 124.93575 | 26680 ft | 480 kts | 23° |
| 2026-05-05 15:10 | 42.50037 | 124.95637 | 26690 ft | 480 kts | 23° |
| 2026-05-05 15:11 | 42.52970 | 124.97680 | 26691 ft | 480 kts | 23° |
| 2026-05-05 15:11 | 42.55978 | 124.99781 | 26677 ft | 480 kts | 23° |
| 2026-05-05 15:11 | 42.58903 | 125.01826 | 26687 ft | 479 kts | 23° |
| 2026-05-05 15:11 | 42.61867 | 125.03898 | 26672 ft | 479 kts | 23° |
| 2026-05-05 15:12 | 42.64833 | 125.05972 | 26672 ft | 479 kts | 23° |
| 2026-05-05 15:12 | 42.67798 | 125.08049 | 26509 ft | 480 kts | 23° |
| 2026-05-05 15:12 | 42.70769 | 125.10131 | 26028 ft | 481 kts | 22° |
| 2026-05-05 15:12 | 42.73749 | 125.12225 | 25535 ft | 483 kts | 23° |
| 2026-05-05 15:13 | 42.76748 | 125.14331 | 25046 ft | 486 kts | 23° |
| 2026-05-05 15:13 | 42.79705 | 125.16599 | 24573 ft | 492 kts | 30° |
| 2026-05-05 15:13 | 42.82406 | 125.19516 | 24096 ft | 499 kts | 40° |
| 2026-05-05 15:13 | 42.84727 | 125.23046 | 23634 ft | 502 kts | 50° |
| 2026-05-05 15:14 | 42.86688 | 125.26991 | 23030 ft | 502 kts | 54° |
| 2026-05-05 15:14 | 42.88629 | 125.30912 | 22221 ft | 496 kts | 50° |
| 2026-05-05 15:14 | 42.90852 | 125.34455 | 21437 ft | 488 kts | 41° |
| 2026-05-05 15:14 | 42.93375 | 125.37482 | 20678 ft | 480 kts | 33° |
| 2026-05-05 15:15 | 42.96132 | 125.39968 | 19936 ft | 472 kts | 25° |
| 2026-05-05 15:15 | 42.99027 | 125.42021 | 19209 ft | 467 kts | 22° |
| 2026-05-05 15:15 | 43.01915 | 125.44037 | 18508 ft | 465 kts | 22° |
| 2026-05-05 15:15 | 43.04783 | 125.46052 | 17769 ft | 462 kts | 23° |
| 2026-05-05 15:16 | 43.07593 | 125.48037 | 16983 ft | 459 kts | 23° |
| 2026-05-05 15:16 | 43.10417 | 125.50039 | 16210 ft | 455 kts | 23° |
| 2026-05-05 15:16 | 43.13220 | 125.52025 | 15455 ft | 452 kts | 23° |
| 2026-05-05 15:16 | 43.16000 | 125.53990 | 14739 ft | 448 kts | 23° |
| 2026-05-05 15:17 | 43.18764 | 125.55943 | 14025 ft | 446 kts | 23° |
| 2026-05-05 15:17 | 43.21524 | 125.57866 | 13295 ft | 442 kts | 21° |
| 2026-05-05 15:17 | 43.24383 | 125.59290 | 12513 ft | 433 kts | 9° |
| 2026-05-05 15:17 | 43.27310 | 125.60009 | 11838 ft | 421 kts | 359° |
| 2026-05-05 15:18 | 43.30202 | 125.60051 | 11606 ft | 412 kts | 349° |
| 2026-05-05 15:18 | 43.33000 | 125.59477 | 11550 ft | 403 kts | 340° |
| 2026-05-05 15:18 | 43.35668 | 125.58370 | 11570 ft | 399 kts | 334° |
| 2026-05-05 15:18 | 43.38301 | 125.57156 | 11528 ft | 399 kts | 334° |
| 2026-05-05 15:19 | 43.40883 | 125.55969 | 11254 ft | 384 kts | 334° |
| 2026-05-05 15:19 | 43.43372 | 125.54832 | 10923 ft | 371 kts | 334° |
| 2026-05-05 15:19 | 43.45775 | 125.53735 | 10503 ft | 352 kts | 334° |
| 2026-05-05 15:19 | 43.48026 | 125.52714 | 10099 ft | 330 kts | 333° |
| 2026-05-05 15:20 | 43.50144 | 125.51744 | 9705 ft | 312 kts | 333° |
| 2026-05-05 15:20 | 43.52151 | 125.50811 | 9271 ft | 297 kts | 332° |
| 2026-05-05 15:20 | 43.54066 | 125.49910 | 8832 ft | 286 kts | 331° |
| 2026-05-05 15:20 | 43.55930 | 125.49025 | 8392 ft | 281 kts | 330° |
| 2026-05-05 15:21 | 43.57774 | 125.48148 | 7965 ft | 279 kts | 330° |
| 2026-05-05 15:21 | 43.59602 | 125.47278 | 7544 ft | 276 kts | 329° |
| 2026-05-05 15:21 | 43.61267 | 125.46114 | 7138 ft | 263 kts | 315° |
| 2026-05-05 15:21 | 43.62647 | 125.44547 | 6908 ft | 253 kts | 309° |
| 2026-05-05 15:22 | 43.63980 | 125.42935 | 6894 ft | 256 kts | 309° |
| 2026-05-05 15:22 | 43.65328 | 125.41325 | 6901 ft | 257 kts | 310° |
| 2026-05-05 15:22 | 43.66666 | 125.39739 | 6896 ft | 257 kts | 310° |
| 2026-05-05 15:22 | 43.68023 | 125.38132 | 6909 ft | 257 kts | 310° |
| 2026-05-05 15:23 | 43.69340 | 125.36578 | 6897 ft | 240 kts | 309° |
| 2026-05-05 15:23 | 43.70566 | 125.35139 | 6908 ft | 222 kts | 309° |
| 2026-05-05 15:23 | 43.71702 | 125.33795 | 6895 ft | 209 kts | 309° |
| 2026-05-05 15:23 | 43.72794 | 125.32482 | 6896 ft | 207 kts | 309° |
| 2026-05-05 15:24 | 43.73928 | 125.31229 | 6893 ft | 215 kts | 322° |
| 2026-05-05 15:24 | 43.75467 | 125.30871 | 6895 ft | 243 kts | 2° |
| 2026-05-05 15:24 | 43.77028 | 125.31968 | 6903 ft | 261 kts | 34° |
| 2026-05-05 15:24 | 43.78300 | 125.33709 | 6889 ft | 253 kts | 45° |
| 2026-05-05 15:25 | 43.79375 | 125.35610 | 6787 ft | 252 kts | 53° |
| 2026-05-05 15:25 | 43.80397 | 125.37643 | 6224 ft | 263 kts | 49° |
| 2026-05-05 15:25 | 43.81564 | 125.39594 | 5794 ft | 262 kts | 45° |
| 2026-05-05 15:25 | 43.82754 | 125.41475 | 5428 ft | 258 kts | 46° |
| 2026-05-05 15:26 | 43.83909 | 125.43310 | 5084 ft | 246 kts | 46° |
| 2026-05-05 15:26 | 43.84990 | 125.45037 | 4796 ft | 228 kts | 46° |
| 2026-05-05 15:26 | 43.85986 | 125.46630 | 4509 ft | 210 kts | 46° |
| 2026-05-05 15:26 | 43.86923 | 125.48125 | 4210 ft | 201 kts | 47° |
| 2026-05-05 15:27 | 43.87810 | 125.49543 | 3947 ft | 193 kts | 47° |
| 2026-05-05 15:27 | 43.88651 | 125.50888 | 3705 ft | 179 kts | 48° |
| 2026-05-05 15:27 | 43.89441 | 125.52153 | 3462 ft | 170 kts | 49° |
| 2026-05-05 15:27 | 43.90206 | 125.53376 | 3243 ft | 166 kts | 50° |
| 2026-05-05 15:28 | 43.90957 | 125.54580 | 3034 ft | 164 kts | 50° |
| 2026-05-05 15:28 | 43.91703 | 125.55775 | 2819 ft | 164 kts | 50° |
| 2026-05-05 15:28 | 43.92445 | 125.56966 | 2586 ft | 162 kts | 51° |
| 2026-05-05 15:28 | 43.93180 | 125.58144 | 2376 ft | 161 kts | 50° |
| 2026-05-05 15:29 | 43.93907 | 125.59311 | 2155 ft | 159 kts | 50° |
| 2026-05-05 15:29 | 43.94624 | 125.60463 | 1953 ft | 156 kts | 52° |
| 2026-05-05 15:29 | 43.95326 | 125.61591 | 1743 ft | 152 kts | 51° |
| 2026-05-05 15:29 | 43.96010 | 125.62690 | 1544 ft | 149 kts | 51° |
| 2026-05-05 15:30 | 43.96674 | 125.63759 | 1362 ft | 144 kts | 50° |
| 2026-05-05 15:30 | 43.97324 | 125.64806 | 1150 ft | 141 kts | 50° |
| 2026-05-05 15:30 | 43.97957 | 125.65821 | 956 ft | 137 kts | 49° |
| 2026-05-05 15:30 | 43.98573 | 125.66814 | 803 ft | 135 kts | 49° |
| 2026-05-05 15:31 | 43.99172 | 125.67766 | 687 ft | 120 kts | 49° |
| 2026-05-05 15:31 | 43.99613 | 125.68478 | 674 ft | 72 kts | 49° |
| 2026-05-05 15:31 | 43.99832 | 125.68829 | 668 ft | 30 kts | 49° |
| 2026-05-05 15:31 | 43.99936 | 125.69071 | 665 ft | 30 kts | 69° |
| 2026-05-05 15:32 | 43.99981 | 125.69358 | 659 ft | 30 kts | 78° |
| 2026-05-05 15:32 | 43.99998 | 125.69448 | 658 ft | 2 kts | 83° |
| 2026-05-05 15:32 | 43.99994 | 125.69461 | 658 ft | 1 kts | 122° |
| 2026-05-05 15:32 | 43.99970 | 125.69459 | 658 ft | 11 kts | 212° |
| 2026-05-05 15:33 | 43.99922 | 125.69348 | 660 ft | 13 kts | 237° |
| 2026-05-05 15:33 | 43.99861 | 125.69241 | 661 ft | 16 kts | 229° |
| 2026-05-05 15:33 | 43.99794 | 125.69132 | 664 ft | 14 kts | 229° |
| 2026-05-05 15:33 | 43.99739 | 125.69043 | 665 ft | 11 kts | 229° |
| 2026-05-05 15:34 | 43.99692 | 125.68982 | 666 ft | 8 kts | 208° |
| 2026-05-05 15:34 | 43.99647 | 125.68976 | 668 ft | 6 kts | 167° |
| 2026-05-05 15:34 | 43.99581 | 125.69000 | 668 ft | 19 kts | 165° |
| 2026-05-05 15:34 | 43.99464 | 125.69048 | 668 ft | 10 kts | 144° |
| 2026-05-05 15:35 | 43.99444 | 125.69072 | 666 ft | 0 kts | 141° |